sensor_id;sensor_type;location;lat;lon;timestamp;P1;durP1;ratioP1;P2;durP2;ratioP2
18378;SDS011;27025;51.986;5.984;2023-10-13T00:01:56;27.77;;;24.50;;
18378;SDS011;27025;51.986;5.984;2023-10-13T00:04:26;30.10;;;24.20;;
18378;SDS011;27025;51.986;5.984;2023-10-13T00:06:52;33.83;;;25.00;;
18378;SDS011;27025;51.986;5.984;2023-10-13T00:09:19;29.73;;;22.77;;
18378;SDS011;27025;51.986;5.984;2023-10-13T00:11:53;25.33;;;22.47;;
18378;SDS011;27025;51.986;5.984;2023-10-13T00:14:21;26.50;;;21.53;;
18378;SDS011;27025;51.986;5.984;2023-10-13T00:16:47;22.97;;;20.57;;
18378;SDS011;27025;51.986;5.984;2023-10-13T00:19:28;25.30;;;21.17;;
18378;SDS011;27025;51.986;5.984;2023-10-13T00:22:02;25.60;;;19.93;;
18378;SDS011;27025;51.986;5.984;2023-10-13T00:24:34;24.57;;;19.50;;
18378;SDS011;27025;51.986;5.984;2023-10-13T00:27:08;24.67;;;19.53;;
18378;SDS011;27025;51.986;5.984;2023-10-13T00:29:41;22.90;;;19.23;;
18378;SDS011;27025;51.986;5.984;2023-10-13T00:32:08;26.03;;;19.50;;
18378;SDS011;27025;51.986;5.984;2023-10-13T00:34:40;23.60;;;20.70;;
18378;SDS011;27025;51.986;5.984;2023-10-13T00:37:06;22.63;;;20.27;;
18378;SDS011;27025;51.986;5.984;2023-10-13T00:39:45;24.30;;;19.40;;
18378;SDS011;27025;51.986;5.984;2023-10-13T00:42:14;21.83;;;19.47;;
18378;SDS011;27025;51.986;5.984;2023-10-13T00:44:45;23.20;;;18.63;;
18378;SDS011;27025;51.986;5.984;2023-10-13T00:47:18;22.00;;;18.90;;
18378;SDS011;27025;51.986;5.984;2023-10-13T00:50:04;21.50;;;18.37;;
18378;SDS011;27025;51.986;5.984;2023-10-13T00:52:30;22.33;;;17.27;;
18378;SDS011;27025;51.986;5.984;2023-10-13T00:55:00;23.07;;;17.63;;
18378;SDS011;27025;51.986;5.984;2023-10-13T00:57:26;24.53;;;18.13;;
18378;SDS011;27025;51.986;5.984;2023-10-13T00:59:52;21.93;;;17.43;;
18378;SDS011;27025;51.986;5.984;2023-10-13T01:02:19;21.30;;;17.67;;
18378;SDS011;27025;51.986;5.984;2023-10-13T01:05:03;21.23;;;17.40;;
18378;SDS011;27025;51.986;5.984;2023-10-13T01:07:34;25.07;;;17.73;;
18378;SDS011;27025;51.986;5.984;2023-10-13T01:10:02;20.87;;;17.97;;
18378;SDS011;27025;51.986;5.984;2023-10-13T01:12:29;20.77;;;17.97;;
18378;SDS011;27025;51.986;5.984;2023-10-13T01:14:56;22.97;;;17.60;;
18378;SDS011;27025;51.986;5.984;2023-10-13T01:17:22;21.07;;;17.07;;
18378;SDS011;27025;51.986;5.984;2023-10-13T01:19:51;22.53;;;17.27;;
18378;SDS011;27025;51.986;5.984;2023-10-13T01:22:17;19.27;;;16.63;;
18378;SDS011;27025;51.986;5.984;2023-10-13T01:24:46;23.00;;;17.53;;
18378;SDS011;27025;51.986;5.984;2023-10-13T01:27:14;25.40;;;16.80;;
18378;SDS011;27025;51.986;5.984;2023-10-13T01:29:44;24.60;;;17.27;;
18378;SDS011;27025;51.986;5.984;2023-10-13T01:32:16;22.23;;;16.87;;
18378;SDS011;27025;51.986;5.984;2023-10-13T01:34:42;20.93;;;16.97;;
18378;SDS011;27025;51.986;5.984;2023-10-13T01:37:11;20.50;;;16.67;;
18378;SDS011;27025;51.986;5.984;2023-10-13T01:39:37;20.33;;;16.93;;
18378;SDS011;27025;51.986;5.984;2023-10-13T01:42:03;21.57;;;16.87;;
18378;SDS011;27025;51.986;5.984;2023-10-13T01:44:33;22.87;;;17.10;;
18378;SDS011;27025;51.986;5.984;2023-10-13T01:46:59;19.80;;;16.37;;
18378;SDS011;27025;51.986;5.984;2023-10-13T01:49:33;18.70;;;16.03;;
18378;SDS011;27025;51.986;5.984;2023-10-13T01:52:07;19.27;;;15.33;;
18378;SDS011;27025;51.986;5.984;2023-10-13T01:54:36;24.07;;;16.67;;
18378;SDS011;27025;51.986;5.984;2023-10-13T01:57:06;16.80;;;15.10;;
18378;SDS011;27025;51.986;5.984;2023-10-13T01:59:32;19.67;;;15.50;;
18378;SDS011;27025;51.986;5.984;2023-10-13T02:01:58;17.60;;;14.80;;
18378;SDS011;27025;51.986;5.984;2023-10-13T02:04:29;17.83;;;14.43;;
18378;SDS011;27025;51.986;5.984;2023-10-13T02:07:07;18.00;;;14.60;;
18378;SDS011;27025;51.986;5.984;2023-10-13T02:09:33;16.17;;;13.93;;
18378;SDS011;27025;51.986;5.984;2023-10-13T02:12:02;17.93;;;14.53;;
18378;SDS011;27025;51.986;5.984;2023-10-13T02:14:28;18.13;;;14.23;;
18378;SDS011;27025;51.986;5.984;2023-10-13T02:17:01;14.30;;;12.67;;
18378;SDS011;27025;51.986;5.984;2023-10-13T02:19:47;17.63;;;12.73;;
18378;SDS011;27025;51.986;5.984;2023-10-13T02:22:13;17.33;;;12.53;;
18378;SDS011;27025;51.986;5.984;2023-10-13T02:24:52;13.90;;;12.47;;
18378;SDS011;27025;51.986;5.984;2023-10-13T02:27:18;15.27;;;12.90;;
18378;SDS011;27025;51.986;5.984;2023-10-13T02:29:49;16.73;;;13.00;;
18378;SDS011;27025;51.986;5.984;2023-10-13T02:32:15;17.30;;;12.53;;
18378;SDS011;27025;51.986;5.984;2023-10-13T02:34:47;17.00;;;12.97;;
18378;SDS011;27025;51.986;5.984;2023-10-13T02:37:13;19.37;;;13.07;;
18378;SDS011;27025;51.986;5.984;2023-10-13T02:39:41;17.77;;;11.77;;
18378;SDS011;27025;51.986;5.984;2023-10-13T02:42:07;15.63;;;11.93;;
18378;SDS011;27025;51.986;5.984;2023-10-13T02:44:36;15.33;;;11.13;;
18378;SDS011;27025;51.986;5.984;2023-10-13T02:47:06;19.33;;;11.77;;
18378;SDS011;27025;51.986;5.984;2023-10-13T02:49:33;15.63;;;11.17;;
18378;SDS011;27025;51.986;5.984;2023-10-13T02:52:02;15.90;;;10.77;;
18378;SDS011;27025;51.986;5.984;2023-10-13T02:54:34;13.47;;;10.83;;
18378;SDS011;27025;51.986;5.984;2023-10-13T02:57:05;13.40;;;10.67;;
18378;SDS011;27025;51.986;5.984;2023-10-13T02:59:31;17.60;;;11.87;;
18378;SDS011;27025;51.986;5.984;2023-10-13T03:02:11;18.27;;;11.47;;
18378;SDS011;27025;51.986;5.984;2023-10-13T03:04:51;19.67;;;11.57;;
18378;SDS011;27025;51.986;5.984;2023-10-13T03:07:17;14.83;;;10.37;;
18378;SDS011;27025;51.986;5.984;2023-10-13T03:09:53;13.67;;;10.57;;
18378;SDS011;27025;51.986;5.984;2023-10-13T03:12:23;18.37;;;10.90;;
18378;SDS011;27025;51.986;5.984;2023-10-13T03:14:58;17.20;;;10.83;;
18378;SDS011;27025;51.986;5.984;2023-10-13T03:17:44;15.00;;;10.80;;
18378;SDS011;27025;51.986;5.984;2023-10-13T03:22:39;16.37;;;9.90;;
18378;SDS011;27025;51.986;5.984;2023-10-13T03:25:05;13.60;;;9.37;;
18378;SDS011;27025;51.986;5.984;2023-10-13T03:27:33;15.37;;;9.87;;
18378;SDS011;27025;51.986;5.984;2023-10-13T03:30:25;19.67;;;9.87;;
18378;SDS011;27025;51.986;5.984;2023-10-13T03:33:01;15.60;;;9.73;;
18378;SDS011;27025;51.986;5.984;2023-10-13T03:35:31;14.73;;;9.10;;
18378;SDS011;27025;51.986;5.984;2023-10-13T03:38:06;13.37;;;9.60;;
18378;SDS011;27025;51.986;5.984;2023-10-13T03:40:45;15.30;;;9.30;;
18378;SDS011;27025;51.986;5.984;2023-10-13T03:43:15;14.50;;;9.23;;
18378;SDS011;27025;51.986;5.984;2023-10-13T03:45:50;14.77;;;10.27;;
18378;SDS011;27025;51.986;5.984;2023-10-13T03:48:35;15.30;;;10.47;;
18378;SDS011;27025;51.986;5.984;2023-10-13T03:51:16;18.40;;;12.27;;
18378;SDS011;27025;51.986;5.984;2023-10-13T03:53:43;16.20;;;11.80;;
18378;SDS011;27025;51.986;5.984;2023-10-13T03:56:18;16.23;;;12.80;;
18378;SDS011;27025;51.986;5.984;2023-10-13T03:58:51;17.80;;;12.67;;
18378;SDS011;27025;51.986;5.984;2023-10-13T04:01:19;19.17;;;13.47;;
18378;SDS011;27025;51.986;5.984;2023-10-13T04:03:54;18.73;;;14.40;;
18378;SDS011;27025;51.986;5.984;2023-10-13T04:06:29;20.50;;;14.43;;
18378;SDS011;27025;51.986;5.984;2023-10-13T04:09:17;25.23;;;15.33;;
18378;SDS011;27025;51.986;5.984;2023-10-13T04:11:55;19.97;;;14.83;;
18378;SDS011;27025;51.986;5.984;2023-10-13T04:14:42;19.03;;;15.27;;
18378;SDS011;27025;51.986;5.984;2023-10-13T04:17:23;20.33;;;14.77;;
18378;SDS011;27025;51.986;5.984;2023-10-13T04:19:51;17.67;;;14.30;;
18378;SDS011;27025;51.986;5.984;2023-10-13T04:27:57;18.53;;;13.83;;
18378;SDS011;27025;51.986;5.984;2023-10-13T04:30:39;20.53;;;14.10;;
18378;SDS011;27025;51.986;5.984;2023-10-13T04:33:32;20.50;;;13.90;;
18378;SDS011;27025;51.986;5.984;2023-10-13T04:36:07;18.67;;;13.87;;
18378;SDS011;27025;51.986;5.984;2023-10-13T04:39:12;21.60;;;14.40;;
18378;SDS011;27025;51.986;5.984;2023-10-13T04:41:38;20.55;;;15.30;;
18378;SDS011;27025;51.986;5.984;2023-10-13T04:44:11;19.37;;;13.50;;
18378;SDS011;27025;51.986;5.984;2023-10-13T04:46:57;21.13;;;14.23;;
18378;SDS011;27025;51.986;5.984;2023-10-13T04:49:26;24.17;;;14.60;;
18378;SDS011;27025;51.986;5.984;2023-10-13T04:52:08;22.17;;;15.13;;
18378;SDS011;27025;51.986;5.984;2023-10-13T04:54:35;23.60;;;15.77;;
18378;SDS011;27025;51.986;5.984;2023-10-13T04:57:19;24.97;;;17.53;;
18378;SDS011;27025;51.986;5.984;2023-10-13T04:59:48;26.07;;;18.97;;
18378;SDS011;27025;51.986;5.984;2023-10-13T05:02:33;32.83;;;21.00;;
18378;SDS011;27025;51.986;5.984;2023-10-13T05:05:09;30.77;;;20.97;;
18378;SDS011;27025;51.986;5.984;2023-10-13T05:07:50;30.83;;;22.10;;
18378;SDS011;27025;51.986;5.984;2023-10-13T05:10:35;34.13;;;22.63;;
18378;SDS011;27025;51.986;5.984;2023-10-13T05:13:20;33.30;;;23.50;;
18378;SDS011;27025;51.986;5.984;2023-10-13T05:16:05;28.93;;;23.73;;
18378;SDS011;27025;51.986;5.984;2023-10-13T05:18:49;28.20;;;22.80;;
18378;SDS011;27025;51.986;5.984;2023-10-13T05:21:33;30.43;;;23.50;;
18378;SDS011;27025;51.986;5.984;2023-10-13T05:24:18;29.13;;;22.60;;
18378;SDS011;27025;51.986;5.984;2023-10-13T05:27:02;28.00;;;20.77;;
18378;SDS011;27025;51.986;5.984;2023-10-13T05:29:47;27.73;;;19.97;;
18378;SDS011;27025;51.986;5.984;2023-10-13T05:32:32;24.73;;;19.87;;
18378;SDS011;27025;51.986;5.984;2023-10-13T05:35:20;24.03;;;17.77;;
18378;SDS011;27025;51.986;5.984;2023-10-13T05:38:05;22.13;;;18.00;;
18378;SDS011;27025;51.986;5.984;2023-10-13T05:40:53;22.70;;;17.93;;
18378;SDS011;27025;51.986;5.984;2023-10-13T05:43:38;21.43;;;16.40;;
18378;SDS011;27025;51.986;5.984;2023-10-13T05:46:29;18.53;;;15.03;;
18378;SDS011;27025;51.986;5.984;2023-10-13T05:49:08;17.40;;;14.47;;
18378;SDS011;27025;51.986;5.984;2023-10-13T05:51:54;16.87;;;12.83;;
18378;SDS011;27025;51.986;5.984;2023-10-13T05:54:31;17.57;;;12.10;;
18378;SDS011;27025;51.986;5.984;2023-10-13T05:57:16;14.97;;;11.87;;
18378;SDS011;27025;51.986;5.984;2023-10-13T06:00:05;13.57;;;11.33;;
18378;SDS011;27025;51.986;5.984;2023-10-13T06:02:50;16.40;;;11.50;;
18378;SDS011;27025;51.986;5.984;2023-10-13T06:05:34;12.80;;;10.97;;
18378;SDS011;27025;51.986;5.984;2023-10-13T06:08:19;16.03;;;11.97;;
18378;SDS011;27025;51.986;5.984;2023-10-13T06:11:03;15.23;;;12.23;;
18378;SDS011;27025;51.986;5.984;2023-10-13T06:13:48;14.47;;;11.77;;
18378;SDS011;27025;51.986;5.984;2023-10-13T06:16:33;15.90;;;11.93;;
18378;SDS011;27025;51.986;5.984;2023-10-13T06:19:17;16.40;;;12.50;;
18378;SDS011;27025;51.986;5.984;2023-10-13T06:22:02;15.10;;;12.50;;
18378;SDS011;27025;51.986;5.984;2023-10-13T06:24:46;14.43;;;12.17;;
18378;SDS011;27025;51.986;5.984;2023-10-13T06:27:31;14.07;;;12.20;;
18378;SDS011;27025;51.986;5.984;2023-10-13T06:30:15;14.80;;;12.70;;
18378;SDS011;27025;51.986;5.984;2023-10-13T06:32:42;14.00;;;11.30;;
18378;SDS011;27025;51.986;5.984;2023-10-13T06:35:11;12.20;;;10.57;;
18378;SDS011;27025;51.986;5.984;2023-10-13T06:37:52;12.03;;;10.73;;
18378;SDS011;27025;51.986;5.984;2023-10-13T06:40:18;14.17;;;10.60;;
18378;SDS011;27025;51.986;5.984;2023-10-13T06:42:51;12.17;;;9.60;;
18378;SDS011;27025;51.986;5.984;2023-10-13T06:45:18;14.20;;;10.07;;
18378;SDS011;27025;51.986;5.984;2023-10-13T06:47:46;15.03;;;9.63;;
18378;SDS011;27025;51.986;5.984;2023-10-13T06:50:14;10.73;;;9.60;;
18378;SDS011;27025;51.986;5.984;2023-10-13T06:52:43;13.83;;;9.37;;
18378;SDS011;27025;51.986;5.984;2023-10-13T06:55:12;13.53;;;10.43;;
18378;SDS011;27025;51.986;5.984;2023-10-13T06:57:42;13.60;;;8.90;;
18378;SDS011;27025;51.986;5.984;2023-10-13T07:00:09;12.33;;;9.13;;
18378;SDS011;27025;51.986;5.984;2023-10-13T07:02:44;12.17;;;8.50;;
18378;SDS011;27025;51.986;5.984;2023-10-13T07:05:11;12.33;;;8.97;;
18378;SDS011;27025;51.986;5.984;2023-10-13T07:07:39;10.03;;;8.67;;
18378;SDS011;27025;51.986;5.984;2023-10-13T07:10:09;10.87;;;8.47;;
18378;SDS011;27025;51.986;5.984;2023-10-13T07:12:36;13.77;;;8.70;;
18378;SDS011;27025;51.986;5.984;2023-10-13T07:15:03;14.97;;;9.43;;
18378;SDS011;27025;51.986;5.984;2023-10-13T07:17:36;12.93;;;9.03;;
18378;SDS011;27025;51.986;5.984;2023-10-13T07:20:09;15.27;;;9.10;;
18378;SDS011;27025;51.986;5.984;2023-10-13T07:22:59;12.07;;;8.80;;
18378;SDS011;27025;51.986;5.984;2023-10-13T07:25:34;13.77;;;9.20;;
18378;SDS011;27025;51.986;5.984;2023-10-13T07:28:02;13.80;;;9.27;;
18378;SDS011;27025;51.986;5.984;2023-10-13T07:30:29;12.70;;;9.53;;
18378;SDS011;27025;51.986;5.984;2023-10-13T07:33:04;14.33;;;9.77;;
18378;SDS011;27025;51.986;5.984;2023-10-13T07:35:31;12.27;;;8.77;;
18378;SDS011;27025;51.986;5.984;2023-10-13T07:38:00;15.37;;;9.73;;
18378;SDS011;27025;51.986;5.984;2023-10-13T07:40:27;15.17;;;8.63;;
18378;SDS011;27025;51.986;5.984;2023-10-13T07:43:02;12.27;;;8.03;;
18378;SDS011;27025;51.986;5.984;2023-10-13T07:45:45;10.80;;;8.40;;
18378;SDS011;27025;51.986;5.984;2023-10-13T07:48:15;16.03;;;8.07;;
18378;SDS011;27025;51.986;5.984;2023-10-13T07:50:44;11.87;;;8.93;;
18378;SDS011;27025;51.986;5.984;2023-10-13T07:53:10;13.63;;;8.70;;
18378;SDS011;27025;51.986;5.984;2023-10-13T07:55:50;11.47;;;8.13;;
18378;SDS011;27025;51.986;5.984;2023-10-13T08:01:40;14.47;;;8.50;;
18378;SDS011;27025;51.986;5.984;2023-10-13T08:04:11;17.07;;;8.43;;
18378;SDS011;27025;51.986;5.984;2023-10-13T08:12:46;16.60;;;8.57;;
18378;SDS011;27025;51.986;5.984;2023-10-13T08:15:14;16.17;;;8.17;;
18378;SDS011;27025;51.986;5.984;2023-10-13T08:18:22;14.57;;;7.60;;
18378;SDS011;27025;51.986;5.984;2023-10-13T08:20:58;14.77;;;7.80;;
18378;SDS011;27025;51.986;5.984;2023-10-13T08:23:31;15.93;;;7.43;;
18378;SDS011;27025;51.986;5.984;2023-10-13T08:26:15;18.13;;;7.60;;
18378;SDS011;27025;51.986;5.984;2023-10-13T08:29:00;15.23;;;7.97;;
18378;SDS011;27025;51.986;5.984;2023-10-13T08:31:48;16.10;;;8.47;;
18378;SDS011;27025;51.986;5.984;2023-10-13T08:34:46;16.63;;;8.30;;
18378;SDS011;27025;51.986;5.984;2023-10-13T08:37:13;15.17;;;8.23;;
18378;SDS011;27025;51.986;5.984;2023-10-13T08:39:48;16.27;;;7.67;;
18378;SDS011;27025;51.986;5.984;2023-10-13T08:42:34;18.57;;;8.30;;
18378;SDS011;27025;51.986;5.984;2023-10-13T08:47:54;16.67;;;8.40;;
18378;SDS011;27025;51.986;5.984;2023-10-13T08:53:22;17.17;;;8.00;;
18378;SDS011;27025;51.986;5.984;2023-10-13T08:56:02;18.10;;;7.97;;
18378;SDS011;27025;51.986;5.984;2023-10-13T08:58:28;15.67;;;7.47;;
18378;SDS011;27025;51.986;5.984;2023-10-13T09:01:20;16.13;;;7.73;;
18378;SDS011;27025;51.986;5.984;2023-10-13T09:04:05;17.77;;;8.13;;
18378;SDS011;27025;51.986;5.984;2023-10-13T09:12:12;22.63;;;7.63;;
18378;SDS011;27025;51.986;5.984;2023-10-13T09:14:40;18.10;;;7.87;;
18378;SDS011;27025;51.986;5.984;2023-10-13T09:17:12;16.90;;;7.10;;
18378;SDS011;27025;51.986;5.984;2023-10-13T09:22:27;16.77;;;7.07;;
18378;SDS011;27025;51.986;5.984;2023-10-13T09:25:00;19.00;;;7.57;;
18378;SDS011;27025;51.986;5.984;2023-10-13T09:27:28;17.07;;;7.73;;
18378;SDS011;27025;51.986;5.984;2023-10-13T09:29:57;15.70;;;6.13;;
18378;SDS011;27025;51.986;5.984;2023-10-13T09:32:42;15.40;;;6.70;;
18378;SDS011;27025;51.986;5.984;2023-10-13T09:35:16;13.03;;;6.60;;
18378;SDS011;27025;51.986;5.984;2023-10-13T09:37:43;14.53;;;7.50;;
18378;SDS011;27025;51.986;5.984;2023-10-13T09:40:12;15.07;;;6.97;;
18378;SDS011;27025;51.986;5.984;2023-10-13T09:43:02;12.77;;;7.50;;
18378;SDS011;27025;51.986;5.984;2023-10-13T09:45:33;17.30;;;7.00;;
18378;SDS011;27025;51.986;5.984;2023-10-13T09:48:06;16.00;;;6.93;;
18378;SDS011;27025;51.986;5.984;2023-10-13T09:56:39;13.27;;;6.87;;
18378;SDS011;27025;51.986;5.984;2023-10-13T09:59:32;15.73;;;6.90;;
18378;SDS011;27025;51.986;5.984;2023-10-13T10:01:59;16.13;;;7.10;;
18378;SDS011;27025;51.986;5.984;2023-10-13T10:10:56;15.43;;;6.80;;
18378;SDS011;27025;51.986;5.984;2023-10-13T10:13:35;18.87;;;7.97;;
18378;SDS011;27025;51.986;5.984;2023-10-13T10:16:16;17.47;;;7.03;;
18378;SDS011;27025;51.986;5.984;2023-10-13T10:18:47;16.07;;;6.77;;
18378;SDS011;27025;51.986;5.984;2023-10-13T10:21:32;14.40;;;7.03;;
18378;SDS011;27025;51.986;5.984;2023-10-13T10:23:58;14.23;;;6.90;;
18378;SDS011;27025;51.986;5.984;2023-10-13T10:29:33;14.67;;;6.70;;
18378;SDS011;27025;51.986;5.984;2023-10-13T10:31:59;16.40;;;7.30;;
18378;SDS011;27025;51.986;5.984;2023-10-13T10:34:29;14.87;;;6.83;;
18378;SDS011;27025;51.986;5.984;2023-10-13T10:36:57;15.87;;;6.97;;
18378;SDS011;27025;51.986;5.984;2023-10-13T10:39:34;14.33;;;6.83;;
18378;SDS011;27025;51.986;5.984;2023-10-13T10:42:10;14.03;;;7.07;;
18378;SDS011;27025;51.986;5.984;2023-10-13T10:44:49;15.03;;;6.70;;
18378;SDS011;27025;51.986;5.984;2023-10-13T10:47:20;16.83;;;7.03;;
18378;SDS011;27025;51.986;5.984;2023-10-13T10:49:56;17.90;;;7.23;;
18378;SDS011;27025;51.986;5.984;2023-10-13T10:52:22;14.87;;;7.40;;
18378;SDS011;27025;51.986;5.984;2023-10-13T10:54:58;16.13;;;7.20;;
18378;SDS011;27025;51.986;5.984;2023-10-13T10:57:24;13.37;;;7.27;;
18378;SDS011;27025;51.986;5.984;2023-10-13T10:59:54;14.27;;;7.70;;
18378;SDS011;27025;51.986;5.984;2023-10-13T11:02:42;15.20;;;6.97;;
18378;SDS011;27025;51.986;5.984;2023-10-13T11:05:16;18.87;;;7.17;;
18378;SDS011;27025;51.986;5.984;2023-10-13T11:07:45;16.85;;;7.25;;
18378;SDS011;27025;51.986;5.984;2023-10-13T11:10:17;15.40;;;6.97;;
18378;SDS011;27025;51.986;5.984;2023-10-13T11:13:01;18.93;;;7.97;;
18378;SDS011;27025;51.986;5.984;2023-10-13T11:15:53;14.30;;;6.73;;
18378;SDS011;27025;51.986;5.984;2023-10-13T11:24:12;17.17;;;6.97;;
18378;SDS011;27025;51.986;5.984;2023-10-13T11:26:39;15.30;;;7.60;;
18378;SDS011;27025;51.986;5.984;2023-10-13T11:29:16;17.20;;;7.90;;
18378;SDS011;27025;51.986;5.984;2023-10-13T11:31:44;16.27;;;6.43;;
18378;SDS011;27025;51.986;5.984;2023-10-13T11:34:24;15.93;;;6.47;;
18378;SDS011;27025;51.986;5.984;2023-10-13T11:39:53;16.27;;;7.43;;
18378;SDS011;27025;51.986;5.984;2023-10-13T11:42:20;16.77;;;7.78;;
18378;SDS011;27025;51.986;5.984;2023-10-13T11:44:58;17.83;;;7.82;;
18378;SDS011;27025;51.986;5.984;2023-10-13T11:47:43;20.40;;;8.20;;
18378;SDS011;27025;51.986;5.984;2023-10-13T11:50:27;19.83;;;7.85;;
18378;SDS011;27025;51.986;5.984;2023-10-13T11:58:51;18.67;;;8.13;;
18378;SDS011;27025;51.986;5.984;2023-10-13T12:01:17;16.00;;;7.67;;
18378;SDS011;27025;51.986;5.984;2023-10-13T12:03:44;18.58;;;8.00;;
18378;SDS011;27025;51.986;5.984;2023-10-13T12:06:30;20.07;;;8.13;;
18378;SDS011;27025;51.986;5.984;2023-10-13T12:11:37;18.40;;;7.20;;
18378;SDS011;27025;51.986;5.984;2023-10-13T12:14:09;19.80;;;7.77;;
18378;SDS011;27025;51.986;5.984;2023-10-13T12:16:52;16.90;;;7.50;;
18378;SDS011;27025;51.986;5.984;2023-10-13T12:22:21;18.03;;;7.90;;
18378;SDS011;27025;51.986;5.984;2023-10-13T12:25:13;17.63;;;7.77;;
18378;SDS011;27025;51.986;5.984;2023-10-13T12:27:58;17.23;;;7.40;;
18378;SDS011;27025;51.986;5.984;2023-10-13T12:30:38;15.00;;;7.27;;
18378;SDS011;27025;51.986;5.984;2023-10-13T12:33:22;19.77;;;8.17;;
18378;SDS011;27025;51.986;5.984;2023-10-13T12:36:06;20.57;;;8.40;;
18378;SDS011;27025;51.986;5.984;2023-10-13T12:41:51;22.00;;;8.23;;
18378;SDS011;27025;51.986;5.984;2023-10-13T12:44:47;17.77;;;8.40;;
18378;SDS011;27025;51.986;5.984;2023-10-13T12:47:39;19.30;;;8.00;;
18378;SDS011;27025;51.986;5.984;2023-10-13T12:50:24;21.40;;;8.30;;
18378;SDS011;27025;51.986;5.984;2023-10-13T12:53:11;16.03;;;7.77;;
18378;SDS011;27025;51.986;5.984;2023-10-13T12:55:45;16.23;;;7.93;;
18378;SDS011;27025;51.986;5.984;2023-10-13T12:58:15;13.57;;;7.80;;
18378;SDS011;27025;51.986;5.984;2023-10-13T13:00:41;17.80;;;8.07;;
18378;SDS011;27025;51.986;5.984;2023-10-13T13:03:13;19.27;;;7.67;;
18378;SDS011;27025;51.986;5.984;2023-10-13T13:05:42;21.47;;;8.43;;
18378;SDS011;27025;51.986;5.984;2023-10-13T13:08:09;17.83;;;8.10;;
18378;SDS011;27025;51.986;5.984;2023-10-13T13:10:37;20.23;;;7.33;;
18378;SDS011;27025;51.986;5.984;2023-10-13T13:13:11;13.70;;;7.37;;
18378;SDS011;27025;51.986;5.984;2023-10-13T13:15:37;21.90;;;8.50;;
18378;SDS011;27025;51.986;5.984;2023-10-13T13:18:04;17.33;;;7.30;;
18378;SDS011;27025;51.986;5.984;2023-10-13T13:20:39;19.87;;;7.73;;
18378;SDS011;27025;51.986;5.984;2023-10-13T13:23:10;16.63;;;7.30;;
18378;SDS011;27025;51.986;5.984;2023-10-13T13:25:45;16.43;;;7.47;;
18378;SDS011;27025;51.986;5.984;2023-10-13T13:28:31;16.87;;;7.20;;
18378;SDS011;27025;51.986;5.984;2023-10-13T13:31:09;14.67;;;7.10;;
18378;SDS011;27025;51.986;5.984;2023-10-13T13:33:42;16.00;;;6.67;;
18378;SDS011;27025;51.986;5.984;2023-10-13T13:36:12;17.43;;;7.60;;
18378;SDS011;27025;51.986;5.984;2023-10-13T13:38:46;16.27;;;7.60;;
18378;SDS011;27025;51.986;5.984;2023-10-13T13:41:15;18.33;;;7.30;;
18378;SDS011;27025;51.986;5.984;2023-10-13T13:43:45;16.30;;;7.33;;
18378;SDS011;27025;51.986;5.984;2023-10-13T13:46:36;19.47;;;7.03;;
18378;SDS011;27025;51.986;5.984;2023-10-13T13:49:06;17.47;;;7.57;;
18378;SDS011;27025;51.986;5.984;2023-10-13T13:51:45;16.50;;;7.07;;
18378;SDS011;27025;51.986;5.984;2023-10-13T13:54:33;24.53;;;7.43;;
18378;SDS011;27025;51.986;5.984;2023-10-13T13:56:59;23.03;;;6.97;;
18378;SDS011;27025;51.986;5.984;2023-10-13T13:59:28;17.67;;;6.93;;
18378;SDS011;27025;51.986;5.984;2023-10-13T14:01:59;20.73;;;7.10;;
18378;SDS011;27025;51.986;5.984;2023-10-13T14:04:43;18.07;;;6.47;;
18378;SDS011;27025;51.986;5.984;2023-10-13T14:07:14;22.03;;;6.10;;
18378;SDS011;27025;51.986;5.984;2023-10-13T14:09:41;21.70;;;7.23;;
18378;SDS011;27025;51.986;5.984;2023-10-13T14:12:09;15.33;;;7.03;;
18378;SDS011;27025;51.986;5.984;2023-10-13T14:18:00;15.67;;;6.43;;
18378;SDS011;27025;51.986;5.984;2023-10-13T14:26:38;13.00;;;5.93;;
18378;SDS011;27025;51.986;5.984;2023-10-13T14:29:04;15.93;;;6.70;;
18378;SDS011;27025;51.986;5.984;2023-10-13T14:31:37;14.00;;;5.97;;
18378;SDS011;27025;51.986;5.984;2023-10-13T14:36:54;15.43;;;5.87;;
18378;SDS011;27025;51.986;5.984;2023-10-13T14:39:20;16.63;;;6.60;;
18378;SDS011;27025;51.986;5.984;2023-10-13T14:41:46;18.43;;;6.40;;
18378;SDS011;27025;51.986;5.984;2023-10-13T14:44:22;16.03;;;6.10;;
18378;SDS011;27025;51.986;5.984;2023-10-13T14:46:52;16.90;;;6.17;;
18378;SDS011;27025;51.986;5.984;2023-10-13T14:49:21;18.57;;;6.80;;
18378;SDS011;27025;51.986;5.984;2023-10-13T14:51:49;15.90;;;6.47;;
18378;SDS011;27025;51.986;5.984;2023-10-13T14:54:15;17.67;;;6.90;;
18378;SDS011;27025;51.986;5.984;2023-10-13T14:56:50;14.20;;;6.53;;
18378;SDS011;27025;51.986;5.984;2023-10-13T14:59:20;13.13;;;6.57;;
18378;SDS011;27025;51.986;5.984;2023-10-13T15:01:49;14.50;;;6.93;;
18378;SDS011;27025;51.986;5.984;2023-10-13T15:04:15;15.37;;;7.60;;
18378;SDS011;27025;51.986;5.984;2023-10-13T15:06:41;17.60;;;6.47;;
18378;SDS011;27025;51.986;5.984;2023-10-13T15:09:09;16.17;;;6.80;;
18378;SDS011;27025;51.986;5.984;2023-10-13T15:11:36;17.70;;;6.87;;
18378;SDS011;27025;51.986;5.984;2023-10-13T15:14:02;15.60;;;6.50;;
18378;SDS011;27025;51.986;5.984;2023-10-13T15:16:31;15.47;;;7.20;;
18378;SDS011;27025;51.986;5.984;2023-10-13T15:18:58;21.17;;;6.93;;
18378;SDS011;27025;51.986;5.984;2023-10-13T15:21:25;21.27;;;7.33;;
18378;SDS011;27025;51.986;5.984;2023-10-13T15:24:01;14.57;;;7.13;;
18378;SDS011;27025;51.986;5.984;2023-10-13T15:26:43;16.40;;;6.80;;
18378;SDS011;27025;51.986;5.984;2023-10-13T15:29:17;16.17;;;6.27;;
18378;SDS011;27025;51.986;5.984;2023-10-13T15:31:50;11.13;;;6.50;;
18378;SDS011;27025;51.986;5.984;2023-10-13T15:34:28;20.77;;;7.53;;
18378;SDS011;27025;51.986;5.984;2023-10-13T15:36:54;17.60;;;7.00;;
18378;SDS011;27025;51.986;5.984;2023-10-13T15:39:24;13.97;;;7.07;;
18378;SDS011;27025;51.986;5.984;2023-10-13T15:41:54;15.30;;;7.20;;
18378;SDS011;27025;51.986;5.984;2023-10-13T15:44:26;16.00;;;7.23;;
18378;SDS011;27025;51.986;5.984;2023-10-13T15:46:55;16.27;;;7.47;;
18378;SDS011;27025;51.986;5.984;2023-10-13T15:49:24;17.73;;;7.10;;
18378;SDS011;27025;51.986;5.984;2023-10-13T15:52:09;14.17;;;6.90;;
18378;SDS011;27025;51.986;5.984;2023-10-13T15:54:35;16.67;;;7.20;;
18378;SDS011;27025;51.986;5.984;2023-10-13T15:57:01;18.53;;;7.50;;
18378;SDS011;27025;51.986;5.984;2023-10-13T15:59:31;17.47;;;7.23;;
18378;SDS011;27025;51.986;5.984;2023-10-13T16:02:01;16.77;;;7.40;;
18378;SDS011;27025;51.986;5.984;2023-10-13T16:04:32;18.60;;;7.63;;
18378;SDS011;27025;51.986;5.984;2023-10-13T16:06:58;17.20;;;7.40;;
18378;SDS011;27025;51.986;5.984;2023-10-13T16:09:24;16.50;;;7.30;;
18378;SDS011;27025;51.986;5.984;2023-10-13T16:11:53;13.90;;;7.00;;
18378;SDS011;27025;51.986;5.984;2023-10-13T16:14:22;19.17;;;7.33;;
18378;SDS011;27025;51.986;5.984;2023-10-13T16:16:51;16.70;;;7.30;;
18378;SDS011;27025;51.986;5.984;2023-10-13T16:19:20;20.27;;;7.57;;
18378;SDS011;27025;51.986;5.984;2023-10-13T16:21:50;18.20;;;7.43;;
18378;SDS011;27025;51.986;5.984;2023-10-13T16:24:17;16.87;;;7.00;;
18378;SDS011;27025;51.986;5.984;2023-10-13T16:26:44;14.90;;;7.30;;
18378;SDS011;27025;51.986;5.984;2023-10-13T16:29:13;16.83;;;6.80;;
18378;SDS011;27025;51.986;5.984;2023-10-13T16:31:39;17.03;;;7.33;;